Terminal Aerodrome Forecast
Issued by NWS

Home | Current Version | Previous Version | Text Only | Print | Product List | Glossary On
Versions: 1 2 3 4 5 6 7 8 9 10 11 12 13 14 15 16 17 18 19 20 21
000
FTPA31 PHFO 201700
TAFOGG
TAF
PHOG 201736Z 2018/2118 VRB02KT P6SM FEW025
     FM202000 02012KT P6SM FEW030 SCT060
     FM210300 05006KT P6SM FEW025 SCT050
     FM210600 VRB03KT P6SM FEW025 SCT050
      AMD LTD TO WX VIS AND WIND 2109/2116=

USA.gov is the U.S. government's official web portal to all federal, state and local government web resources and services.